createdAt,value
2023-03-18T00:00:45.536Z,49.40
2023-03-18T00:03:15.689Z,49.70
2023-03-18T00:05:43.888Z,49.40
2023-03-18T00:08:14.837Z,49.20
2023-03-18T00:10:42.964Z,49.20
2023-03-18T00:13:10.780Z,49.10
2023-03-18T00:15:38.581Z,49.50
2023-03-18T00:18:06.535Z,48.30
2023-03-18T00:20:39.430Z,48.30
2023-03-18T00:23:08.971Z,48.50
2023-03-18T00:25:37.871Z,48.00
2023-03-18T00:28:07.375Z,47.60
2023-03-18T00:30:36.683Z,47.60
2023-03-18T00:33:05.214Z,47.40
2023-03-18T00:35:33.596Z,47.50
2023-03-18T00:38:04.049Z,47.60
2023-03-18T00:40:43.224Z,47.30
2023-03-18T00:43:12.968Z,46.50
2023-03-18T00:45:42.681Z,46.90
2023-03-18T00:48:11.118Z,46.60
2023-03-18T00:50:38.988Z,46.60
2023-03-18T00:53:08.135Z,46.80
2023-03-18T00:55:36.104Z,47.80
2023-03-18T00:58:04.028Z,47.50
2023-03-18T01:00:32.050Z,47.60
2023-03-18T01:03:00.106Z,47.60
2023-03-18T01:05:27.894Z,47.70
2023-03-18T01:07:55.678Z,48.30
2023-03-18T01:10:25.578Z,48.30
2023-03-18T01:12:55.320Z,48.10
2023-03-18T01:15:24.001Z,48.30
2023-03-18T01:17:54.301Z,48.40
2023-03-18T01:20:23.636Z,48.80
2023-03-18T01:22:51.576Z,49.00
2023-03-18T01:25:20.318Z,49.50
2023-03-18T01:27:49.479Z,49.50
2023-03-18T01:30:17.833Z,49.80
2023-03-18T01:32:46.642Z,50.20
2023-03-18T01:35:14.523Z,50.00
2023-03-18T01:37:43.814Z,50.50
2023-03-18T01:40:13.419Z,50.70
2023-03-18T01:42:41.317Z,50.90
2023-03-18T01:45:19.457Z,50.60
2023-03-18T01:47:47.617Z,50.50
2023-03-18T01:50:18.598Z,50.90
2023-03-18T01:52:47.688Z,50.20
2023-03-18T01:55:20.096Z,50.10
2023-03-18T01:57:49.073Z,50.30
2023-03-18T02:00:21.563Z,49.90
2023-03-18T02:02:52.773Z,50.20
2023-03-18T02:05:23.573Z,50.30
2023-03-18T02:07:52.369Z,50.40
2023-03-18T02:10:23.914Z,50.60
2023-03-18T02:12:56.696Z,50.60
2023-03-18T02:15:27.636Z,51.00
2023-03-18T02:18:00.728Z,51.10
2023-03-18T02:20:42.164Z,51.60
2023-03-18T02:23:17.399Z,51.40
2023-03-18T02:25:53.067Z,51.10
2023-03-18T02:28:25.626Z,51.00
2023-03-18T02:30:57.098Z,51.10
2023-03-18T02:33:29.687Z,50.70
2023-03-18T02:36:03.148Z,51.00
2023-03-18T02:38:31.115Z,50.90
2023-03-18T02:40:59.394Z,50.90
2023-03-18T02:43:30.251Z,50.80
2023-03-18T02:46:22.380Z,50.60
2023-03-18T02:48:51.008Z,50.10
2023-03-18T02:51:20.930Z,49.90
2023-03-18T02:53:50.669Z,49.50
2023-03-18T02:56:18.571Z,49.30
2023-03-18T02:58:48.333Z,49.80
2023-03-18T03:01:17.569Z,50.10
2023-03-18T03:03:45.546Z,49.80
2023-03-18T03:06:13.591Z,50.50
2023-03-18T03:08:41.500Z,50.20
2023-03-18T03:11:10.163Z,50.30
2023-03-18T03:13:39.502Z,50.20
2023-03-18T03:16:09.455Z,50.10
2023-03-18T03:18:37.749Z,49.90
2023-03-18T03:21:06.445Z,50.20
2023-03-18T03:23:34.218Z,50.60
2023-03-18T03:26:02.441Z,50.70
2023-03-18T03:28:30.674Z,50.70
2023-03-18T03:30:59.100Z,50.90
2023-03-18T03:33:28.786Z,51.30
2023-03-18T03:35:58.110Z,51.20
2023-03-18T03:38:26.207Z,51.30
2023-03-18T03:40:54.636Z,51.60
2023-03-18T03:43:22.682Z,52.00
2023-03-18T03:45:50.704Z,52.20
2023-03-18T03:48:18.535Z,52.70
2023-03-18T03:50:47.922Z,52.90
2023-03-18T03:53:15.741Z,52.70
2023-03-18T03:55:44.352Z,53.20
2023-03-18T03:58:12.154Z,53.30
2023-03-18T04:00:39.957Z,53.30
2023-03-18T04:03:07.765Z,54.10
2023-03-18T04:05:35.677Z,54.60
2023-03-18T04:08:05.139Z,55.20
2023-03-18T04:10:34.708Z,54.90
2023-03-18T04:13:03.140Z,55.30
2023-03-18T04:15:31.019Z,56.10
2023-03-18T04:18:02.138Z,55.80
2023-03-18T04:20:30.389Z,56.20
2023-03-18T04:22:58.543Z,56.10
2023-03-18T04:25:27.720Z,56.40
2023-03-18T04:27:55.537Z,56.10
2023-03-18T04:30:25.388Z,56.40
2023-03-18T04:32:54.768Z,56.40
2023-03-18T04:35:23.284Z,56.90
2023-03-18T04:37:51.654Z,56.90
2023-03-18T04:40:19.972Z,55.90
2023-03-18T04:42:49.223Z,55.30
2023-03-18T04:45:17.877Z,55.30
2023-03-18T04:47:46.722Z,55.50
2023-03-18T04:50:15.574Z,55.70
2023-03-18T04:52:45.027Z,55.40
2023-03-18T04:55:16.227Z,55.20
2023-03-18T04:57:44.508Z,55.00
2023-03-18T05:00:21.254Z,55.00
2023-03-18T05:02:49.589Z,54.70
2023-03-18T05:05:19.504Z,55.00
2023-03-18T05:07:47.836Z,55.40
2023-03-18T05:10:16.056Z,55.80
2023-03-18T05:12:44.527Z,55.90
2023-03-18T05:15:15.286Z,55.90
2023-03-18T05:17:43.305Z,55.90
2023-03-18T05:20:13.417Z,56.30
2023-03-18T05:22:42.017Z,56.00
2023-03-18T05:25:11.498Z,56.00
2023-03-18T05:27:39.927Z,55.70
2023-03-18T05:30:09.437Z,55.30
2023-03-18T05:32:38.942Z,56.10
2023-03-18T05:35:07.554Z,55.90
2023-03-18T05:37:35.489Z,55.90
2023-03-18T05:40:04.120Z,55.80
2023-03-18T05:42:32.001Z,56.10
2023-03-18T05:44:59.764Z,57.60
2023-03-18T05:47:27.769Z,56.10
2023-03-18T05:49:56.917Z,55.60
2023-03-18T05:52:24.933Z,56.50
2023-03-18T05:54:54.001Z,57.20
2023-03-18T05:57:22.311Z,58.00
2023-03-18T05:59:50.063Z,58.10
2023-03-18T06:02:18.426Z,58.40
2023-03-18T06:04:46.336Z,58.50
2023-03-18T06:07:15.511Z,59.00
2023-03-18T06:09:43.331Z,59.40
2023-03-18T06:12:11.641Z,58.70
2023-03-18T06:14:39.636Z,58.80
2023-03-18T06:17:07.478Z,58.80
2023-03-18T06:19:35.326Z,58.40
2023-03-18T06:22:03.140Z,59.00
2023-03-18T06:24:32.568Z,59.30
2023-03-18T06:27:00.379Z,60.10
2023-03-18T06:29:28.245Z,60.10
2023-03-18T06:31:56.080Z,59.90
2023-03-18T06:34:23.965Z,59.20
2023-03-18T06:36:52.321Z,58.10
2023-03-18T06:39:20.262Z,57.20
2023-03-18T06:41:49.443Z,55.90
2023-03-18T06:44:17.273Z,55.00
2023-03-18T06:46:45.164Z,55.90
2023-03-18T06:49:12.985Z,55.80
2023-03-18T06:51:40.793Z,56.40
2023-03-18T06:54:09.437Z,55.30
2023-03-18T06:56:40.041Z,55.10
2023-03-18T06:59:10.819Z,52.20
2023-03-18T07:01:38.714Z,50.00
2023-03-18T07:04:08.164Z,49.90
2023-03-18T07:06:36.274Z,49.00
2023-03-18T07:09:04.854Z,50.00
2023-03-18T07:11:32.668Z,52.70
2023-03-18T07:14:00.462Z,52.70
2023-03-18T07:16:30.698Z,53.80
2023-03-18T07:18:59.198Z,51.90
2023-03-18T07:21:27.758Z,53.70
2023-03-18T07:23:56.148Z,53.90
2023-03-18T07:26:24.070Z,53.40
2023-03-18T07:28:51.907Z,53.50
2023-03-18T07:31:20.057Z,53.30
2023-03-18T07:33:49.335Z,55.30
2023-03-18T07:36:17.194Z,56.50
2023-03-18T07:38:44.972Z,54.80
2023-03-18T07:41:13.276Z,54.10
2023-03-18T07:43:41.142Z,53.30
2023-03-18T07:46:09.117Z,52.00
2023-03-18T07:48:36.920Z,53.60
2023-03-18T07:51:06.789Z,54.90
2023-03-18T07:53:35.773Z,54.10
2023-03-18T07:56:03.986Z,53.40
2023-03-18T07:58:32.580Z,53.40
2023-03-18T08:01:00.647Z,50.10
2023-03-18T08:03:35.236Z,51.10
2023-03-18T08:06:03.130Z,49.20
2023-03-18T08:08:33.661Z,50.20
2023-03-18T08:14:49.727Z,47.20
2023-03-18T08:17:17.757Z,46.90
2023-03-18T08:19:46.987Z,47.00
2023-03-18T08:22:15.225Z,47.30
2023-03-18T08:24:45.749Z,45.70
2023-03-18T08:27:13.633Z,46.10
2023-03-18T08:29:41.401Z,45.30
2023-03-18T08:32:10.019Z,41.30
2023-03-18T08:34:38.905Z,42.00
2023-03-18T08:37:07.395Z,42.50
2023-03-18T08:39:35.243Z,41.00
2023-03-18T08:42:05.908Z,41.10
2023-03-18T08:44:33.746Z,39.40
2023-03-18T08:47:01.931Z,40.30
2023-03-18T08:49:29.996Z,40.20
2023-03-18T08:51:57.782Z,40.30
2023-03-18T08:54:25.970Z,39.20
2023-03-18T08:56:55.234Z,39.80
2023-03-18T08:59:24.371Z,39.30
2023-03-18T09:01:53.176Z,39.20
2023-03-18T09:04:21.116Z,38.60
2023-03-18T09:06:50.016Z,39.20
2023-03-18T09:09:18.175Z,38.80
2023-03-18T09:11:47.807Z,38.50
2023-03-18T09:14:15.856Z,38.60
2023-03-18T09:16:46.093Z,36.80
2023-03-18T09:19:13.958Z,37.40
2023-03-18T09:21:41.734Z,37.00
2023-03-18T09:24:10.484Z,37.80
2023-03-18T09:26:39.258Z,37.40
2023-03-18T09:29:07.082Z,37.20
2023-03-18T09:31:34.880Z,37.20
2023-03-18T09:34:05.468Z,37.60
2023-03-18T09:36:33.611Z,37.40
2023-03-18T09:39:02.068Z,38.60
2023-03-18T09:41:43.685Z,38.60
2023-03-18T09:44:18.741Z,36.50
2023-03-18T09:47:05.644Z,37.70
2023-03-18T09:50:08.829Z,37.10
2023-03-18T09:52:40.200Z,35.20
2023-03-18T09:55:19.667Z,35.40
2023-03-18T09:57:51.554Z,35.50
2023-03-18T10:00:24.290Z,36.00
2023-03-18T10:02:56.422Z,35.80
2023-03-18T10:05:31.440Z,37.00
2023-03-18T10:08:04.690Z,36.50
2023-03-18T10:10:37.794Z,36.10
2023-03-18T10:13:15.416Z,36.70
2023-03-18T10:15:46.517Z,37.40
2023-03-18T10:18:19.499Z,37.90
2023-03-18T10:21:04.037Z,37.70
2023-03-18T10:23:43.900Z,38.30
2023-03-18T10:26:17.510Z,38.70
2023-03-18T10:29:03.474Z,37.40
2023-03-18T10:31:46.014Z,37.10
2023-03-18T10:34:17.113Z,36.80
2023-03-18T10:36:51.470Z,38.00
2023-03-18T10:39:21.752Z,37.40
2023-03-18T10:41:51.031Z,37.60
2023-03-18T10:44:23.710Z,37.20
2023-03-18T10:47:00.871Z,37.60
2023-03-18T10:49:32.776Z,38.20
2023-03-18T10:52:07.801Z,37.10
2023-03-18T10:54:40.297Z,37.70
2023-03-18T10:57:09.816Z,37.80
2023-03-18T10:59:38.281Z,36.90
2023-03-18T11:02:12.812Z,36.80
2023-03-18T11:04:48.521Z,37.70
2023-03-18T11:07:20.800Z,36.60
2023-03-18T11:09:48.806Z,37.40
2023-03-18T11:12:19.365Z,36.80
2023-03-18T11:14:49.400Z,36.00
2023-03-18T11:17:23.193Z,36.30
2023-03-18T11:20:01.952Z,35.20
2023-03-18T11:22:32.148Z,36.60
2023-03-18T11:25:06.076Z,37.00
2023-03-18T11:27:40.496Z,36.80
2023-03-18T11:30:24.324Z,36.20
2023-03-18T11:33:03.788Z,35.60
2023-03-18T11:35:37.899Z,37.00
2023-03-18T11:38:07.820Z,36.40
2023-03-18T11:40:35.837Z,35.70
2023-03-18T11:43:13.683Z,36.00
2023-03-18T11:45:50.202Z,35.70
2023-03-18T11:48:23.192Z,34.80
2023-03-18T11:51:03.409Z,36.10
2023-03-18T11:53:50.191Z,36.10
2023-03-18T11:56:25.134Z,35.70
2023-03-18T11:59:26.760Z,35.50
2023-03-18T12:02:04.767Z,36.50
2023-03-18T12:04:50.393Z,37.30
2023-03-18T12:07:30.474Z,36.50
2023-03-18T12:10:12.847Z,35.90
2023-03-18T12:12:53.500Z,36.60
2023-03-18T12:15:33.555Z,35.90
2023-03-18T12:18:10.064Z,36.20
2023-03-18T12:20:50.622Z,36.50
2023-03-18T12:23:45.832Z,36.60
2023-03-18T12:26:18.871Z,37.30
2023-03-18T12:29:18.416Z,35.90
2023-03-18T12:32:06.604Z,37.20
2023-03-18T12:34:53.056Z,35.50
2023-03-18T12:37:32.137Z,37.20
2023-03-18T12:40:18.293Z,35.80
2023-03-18T12:42:59.654Z,33.80
2023-03-18T12:45:34.498Z,34.80
2023-03-18T12:48:11.071Z,35.30
2023-03-18T12:50:42.386Z,35.70
2023-03-18T12:53:16.590Z,37.10
2023-03-18T12:55:48.130Z,35.10
2023-03-18T12:58:20.302Z,36.60
2023-03-18T13:00:54.612Z,36.00
2023-03-18T13:03:32.197Z,37.00
2023-03-18T13:06:05.105Z,34.60
2023-03-18T13:09:00.959Z,34.40
2023-03-18T13:11:48.327Z,34.00
2023-03-18T13:14:25.765Z,33.40
2023-03-18T13:16:56.143Z,34.60
2023-03-18T13:19:24.054Z,34.70
2023-03-18T13:22:04.167Z,35.30
2023-03-18T13:24:56.608Z,36.60
2023-03-18T13:27:48.512Z,36.60
2023-03-18T13:30:29.893Z,36.60
2023-03-18T13:33:34.138Z,35.80
2023-03-18T13:36:53.400Z,35.60
2023-03-18T13:39:31.686Z,36.00
2023-03-18T13:42:22.991Z,37.10
2023-03-18T13:44:58.774Z,36.10
2023-03-18T13:47:31.524Z,36.30
2023-03-18T13:50:02.148Z,36.60
2023-03-18T13:52:36.177Z,36.90
2023-03-18T13:55:08.253Z,36.60
2023-03-18T13:57:47.759Z,35.60
2023-03-18T14:00:30.494Z,36.00
2023-03-18T14:03:30.480Z,36.20
2023-03-18T14:06:22.547Z,36.00
2023-03-18T14:08:52.118Z,36.10
2023-03-18T14:11:46.837Z,36.00
2023-03-18T14:14:42.337Z,35.90
2023-03-18T14:17:19.666Z,36.30
2023-03-18T14:19:49.094Z,37.10
2023-03-18T14:22:22.876Z,37.10
2023-03-18T14:25:11.832Z,36.60
2023-03-18T14:27:48.118Z,36.90
2023-03-18T14:30:52.527Z,37.00
2023-03-18T14:33:48.302Z,36.30
2023-03-18T14:36:17.498Z,36.70
2023-03-18T14:38:50.001Z,36.90
2023-03-18T14:41:25.641Z,36.60
2023-03-18T14:44:17.224Z,36.40
2023-03-18T14:46:50.297Z,37.30
2023-03-18T14:49:36.944Z,37.60
2023-03-18T14:52:14.419Z,37.30
2023-03-18T14:54:46.068Z,37.20
2023-03-18T14:57:14.244Z,37.20
2023-03-18T14:59:42.810Z,37.00
2023-03-18T15:02:23.155Z,38.80
2023-03-18T15:04:54.316Z,38.20
2023-03-18T15:07:32.277Z,38.30
2023-03-18T15:10:04.397Z,39.20
2023-03-18T15:12:32.210Z,38.40
2023-03-18T15:15:00.082Z,37.60
2023-03-18T15:17:28.370Z,38.00
2023-03-18T15:20:00.267Z,37.90
2023-03-18T15:22:32.334Z,37.10
2023-03-18T15:25:02.581Z,37.10
2023-03-18T15:27:33.046Z,37.70
2023-03-18T15:30:02.387Z,37.30
2023-03-18T15:32:32.424Z,37.40
2023-03-18T15:35:13.673Z,37.40
2023-03-18T15:37:44.503Z,37.60
2023-03-18T15:40:30.980Z,37.70
2023-03-18T15:43:04.083Z,37.60
2023-03-18T15:45:32.964Z,37.70
2023-03-18T15:48:09.099Z,37.70
2023-03-18T15:50:37.322Z,37.70
2023-03-18T15:53:19.020Z,38.10
2023-03-18T15:55:51.474Z,38.60
2023-03-18T15:58:25.825Z,38.40
2023-03-18T16:00:55.267Z,39.30
2023-03-18T16:03:25.027Z,39.20
2023-03-18T16:05:54.043Z,38.70
2023-03-18T16:08:24.230Z,38.70
2023-03-18T16:10:55.105Z,38.80
2023-03-18T16:13:25.629Z,39.00
2023-03-18T16:15:54.089Z,38.70
2023-03-18T16:18:22.297Z,38.80
2023-03-18T16:20:51.225Z,39.30
2023-03-18T16:23:20.237Z,39.90
2023-03-18T16:25:51.080Z,40.00
2023-03-18T16:28:22.036Z,40.20
2023-03-18T16:30:52.118Z,39.90
2023-03-18T16:33:21.617Z,39.30
2023-03-18T16:35:55.534Z,39.40
2023-03-18T16:38:23.948Z,39.90
2023-03-18T16:40:54.825Z,39.60
2023-03-18T16:43:24.656Z,40.00
2023-03-18T16:45:52.735Z,39.40
2023-03-18T16:48:22.665Z,39.60
2023-03-18T16:50:52.404Z,40.70
2023-03-18T16:53:22.484Z,41.40
2023-03-18T16:55:52.617Z,42.50
2023-03-18T16:58:26.544Z,42.80
2023-03-18T17:00:54.852Z,43.20
2023-03-18T17:03:22.665Z,43.40
2023-03-18T17:05:51.905Z,45.60
2023-03-18T17:08:20.763Z,50.10
2023-03-18T17:10:52.471Z,51.30
2023-03-18T17:13:24.575Z,51.20
2023-03-18T17:15:52.709Z,51.40
2023-03-18T17:18:22.785Z,50.80
2023-03-18T17:20:51.548Z,47.80
2023-03-18T17:23:21.536Z,50.40
2023-03-18T17:25:52.173Z,51.40
2023-03-18T17:28:34.463Z,52.50
2023-03-18T17:31:03.013Z,53.30
2023-03-18T17:33:32.821Z,54.20
2023-03-18T17:36:01.894Z,54.90
2023-03-18T17:38:32.198Z,55.20
2023-03-18T17:41:01.233Z,55.30
2023-03-18T17:43:30.591Z,55.90
2023-03-18T17:46:01.504Z,57.00
2023-03-18T17:48:30.847Z,57.30
2023-03-18T17:51:00.406Z,56.30
2023-03-18T17:53:33.089Z,57.00
2023-03-18T17:56:01.815Z,57.30
2023-03-18T17:58:31.199Z,56.90
2023-03-18T18:01:06.653Z,57.50
2023-03-18T18:03:36.153Z,58.10
2023-03-18T18:06:04.557Z,58.20
2023-03-18T18:08:32.637Z,57.80
2023-03-18T18:11:05.874Z,57.80
2023-03-18T18:13:33.669Z,57.70
2023-03-18T18:16:02.977Z,58.20
2023-03-18T18:18:31.022Z,58.40
2023-03-18T18:21:01.446Z,58.70
2023-03-18T18:23:31.571Z,58.40
2023-03-18T18:26:01.499Z,58.30
2023-03-18T18:28:33.001Z,57.90
2023-03-18T18:31:03.639Z,57.90
2023-03-18T18:33:32.812Z,57.50
2023-03-18T18:36:01.102Z,58.00
2023-03-18T18:38:29.785Z,58.80
2023-03-18T18:40:58.990Z,57.80
2023-03-18T18:43:27.434Z,57.60
2023-03-18T18:45:57.534Z,58.10
2023-03-18T18:48:30.755Z,58.30
2023-03-18T18:50:59.407Z,58.60
2023-03-18T18:53:29.377Z,58.80
2023-03-18T18:55:59.557Z,58.30
2023-03-18T18:58:29.527Z,58.60
2023-03-18T19:00:58.375Z,59.10
2023-03-18T19:03:31.636Z,59.10
2023-03-18T19:06:01.392Z,59.00
2023-03-18T19:08:31.817Z,58.70
2023-03-18T19:11:02.157Z,58.80
2023-03-18T19:13:32.037Z,58.90
2023-03-18T19:16:01.969Z,59.00
2023-03-18T19:18:36.755Z,59.10
2023-03-18T19:21:04.809Z,59.30
2023-03-18T19:23:34.785Z,59.30
2023-03-18T19:26:04.117Z,59.20
2023-03-18T19:28:58.348Z,58.90
2023-03-18T19:31:30.608Z,58.80
2023-03-18T19:34:00.555Z,58.70
2023-03-18T19:36:30.906Z,58.60
2023-03-18T19:39:00.485Z,58.50
2023-03-18T19:41:29.002Z,58.30
2023-03-18T19:44:01.852Z,58.20
2023-03-18T19:46:36.532Z,57.90
2023-03-18T19:49:13.168Z,58.00
2023-03-18T19:51:41.488Z,58.60
2023-03-18T19:54:23.576Z,58.60
2023-03-18T19:56:52.465Z,58.80
2023-03-18T19:59:22.805Z,59.10
2023-03-18T20:01:51.498Z,58.60
2023-03-18T20:04:24.433Z,58.90
2023-03-18T20:06:52.373Z,59.00
2023-03-18T20:09:20.439Z,58.90
2023-03-18T20:11:51.190Z,59.30
2023-03-18T20:14:25.191Z,59.80
2023-03-18T20:16:53.547Z,61.60
2023-03-18T20:19:23.055Z,62.40
2023-03-18T20:21:51.380Z,62.30
2023-03-18T20:24:25.985Z,61.60
2023-03-18T20:26:53.783Z,61.50
2023-03-18T20:29:25.231Z,63.00
2023-03-18T20:31:53.390Z,63.40
2023-03-18T20:34:23.013Z,65.00
2023-03-18T20:36:50.882Z,65.80
2023-03-18T20:39:21.809Z,66.40
2023-03-18T20:41:50.463Z,67.10
2023-03-18T20:44:18.413Z,67.60
2023-03-18T20:46:46.230Z,67.50
2023-03-18T20:49:14.824Z,67.10
2023-03-18T20:51:44.297Z,65.30
2023-03-18T20:54:18.786Z,64.20
2023-03-18T20:56:47.478Z,63.90
2023-03-18T20:59:15.326Z,65.50
2023-03-18T21:01:43.401Z,66.50
2023-03-18T21:04:13.509Z,66.50
2023-03-18T21:06:43.431Z,66.20
2023-03-18T21:09:13.227Z,66.20
2023-03-18T21:11:41.490Z,66.50
2023-03-18T21:14:15.331Z,66.40
2023-03-18T21:16:43.371Z,67.20
2023-03-18T21:19:12.522Z,67.00
2023-03-18T21:21:41.418Z,66.70
2023-03-18T21:24:26.067Z,66.60
2023-03-18T21:27:04.173Z,66.90
2023-03-18T21:29:32.759Z,67.40
2023-03-18T21:32:00.974Z,68.00
2023-03-18T21:34:28.918Z,68.00
2023-03-18T21:36:57.295Z,66.20
2023-03-18T21:39:26.445Z,63.80
2023-03-18T21:41:54.324Z,62.10
2023-03-18T21:44:22.854Z,61.40
2023-03-18T21:46:50.645Z,61.80
2023-03-18T21:49:18.429Z,62.70
2023-03-18T21:51:46.608Z,63.60
2023-03-18T21:54:18.716Z,65.40
2023-03-18T21:56:47.867Z,65.50
2023-03-18T21:59:15.943Z,65.20
2023-03-18T22:01:43.877Z,64.10
2023-03-18T22:04:12.825Z,64.90
2023-03-18T22:06:40.688Z,66.20
2023-03-18T22:09:08.674Z,66.10
2023-03-18T22:11:36.524Z,66.50
2023-03-18T22:14:05.632Z,67.10
2023-03-18T22:16:33.505Z,68.10
2023-03-18T22:19:01.379Z,68.10
2023-03-18T22:21:29.572Z,69.00
2023-03-18T22:23:58.149Z,69.20
2023-03-18T22:26:26.143Z,69.60
2023-03-18T22:28:53.934Z,69.80
2023-03-18T22:31:26.250Z,69.20
2023-03-18T22:33:54.169Z,68.40
2023-03-18T22:36:23.779Z,67.50
2023-03-18T22:38:51.941Z,66.30
2023-03-18T22:41:22.272Z,66.40
2023-03-18T22:43:50.920Z,67.00
2023-03-18T22:46:18.858Z,68.50
2023-03-18T22:48:48.068Z,68.40
2023-03-18T22:51:24.038Z,68.70
2023-03-18T22:53:54.076Z,68.00
2023-03-18T22:56:23.610Z,68.00
2023-03-18T22:58:51.646Z,67.70
2023-03-18T23:01:21.520Z,67.70
2023-03-18T23:03:50.673Z,67.70
2023-03-18T23:06:21.210Z,66.70
2023-03-18T23:08:49.177Z,67.10
2023-03-18T23:11:17.612Z,67.10
2023-03-18T23:13:48.072Z,67.40
2023-03-18T23:16:18.701Z,67.90
2023-03-18T23:18:46.698Z,68.00
2023-03-18T23:21:18.794Z,68.50
2023-03-18T23:23:46.813Z,67.90
2023-03-18T23:26:15.127Z,68.30
2023-03-18T23:28:45.283Z,68.50
2023-03-18T23:31:13.538Z,69.40
2023-03-18T23:33:41.372Z,69.20
2023-03-18T23:36:09.777Z,68.90
2023-03-18T23:38:39.024Z,69.30
2023-03-18T23:41:07.173Z,70.10
2023-03-18T23:43:35.000Z,70.00
2023-03-18T23:46:03.731Z,70.20
2023-03-18T23:48:31.895Z,70.30
2023-03-18T23:50:59.861Z,69.40
2023-03-18T23:53:27.722Z,68.60
2023-03-18T23:55:56.920Z,68.30
2023-03-18T23:58:24.765Z,68.40
